KLVL

Details ICAO KLVL
Name LAWRENCEVILLE BRUNSWICK MUNI
Region United States
Timezone America/New_York (UTC-5.0)
Plans Departing 0
Arriving 1
Stats Elevation 329 ft / 100 m (AMSL)
Location 36.772423° -77.794456°
Runways 2
Magnetic Variation 9.956° W
Sunrise 2017-12-12 12:16:03 UTC / 2017-12-12 07:16:03 Local
Sunset 2017-12-12 21:56:49 UTC / 2017-12-12 16:56:49 Local
Advertisement - Login to hide

Runways

ID Width Length Bearing (true) Bearing (mag) Surface Threshold Offset Overrun Length
06 70 ft / 21 m 1,889 ft / 576 m 56.74° 66.70° Dirt 0 ft / 0 m 0 ft / 0 m
18 50 ft / 15 m 3,027 ft / 923 m 172.52° 182.48° Asphalt 0 ft / 0 m 0 ft / 0 m
24 70 ft / 21 m 1,889 ft / 576 m 236.75° 246.71° Dirt 0 ft / 0 m 0 ft / 0 m
36 50 ft / 15 m 3,027 ft / 923 m 352.52° 2.48° Asphalt 0 ft / 0 m 0 ft / 0 m

Map

Weather


0- 5 10 15 20 25 30 35+ Temperature / ° C

Clouds and Precipitation
Forecast for 2017-12-12 06:00 UTC. Updated an hour ago

Ground ~20,000 ft ~40,000 ft Winds

METAR

KLVL 120615Z AUTO 16003KT 10SM CLR 03/M01 A2983 RMK AO1 T00251013

TAF

Not found

Frequencies

Unicom 122.80 MHz CTAF/UNICOM
Warning: Do not use this data for real-world aviation or navigation. No guarantee of current accuracy is given.